Time;durP1;ratioP1;P1;durP2;ratioP2;P2;SDS_P1;SDS_P2;PMS_P1;PMS_P2;Temp;Humidity;BMP_temperature;BMP_pressure;BME280_temperature;BME280_humidity;BME280_pressure;Samples;Min_cycle;Max_cycle;Signal;HPM_P1;HPM_P2
2023/02/19 00:00:19;;;;;;;4.07;2.40;;;9.30;99.90;;;9.77;100.00;98625.63;5007808;28;20541;-78
2023/02/19 00:02:51;;;;;;;2.10;1.87;;;9.30;99.90;;;9.79;100.00;98626.31;5007391;28;20491;-78
2023/02/19 00:05:21;;;;;;;2.83;2.00;;;9.30;99.90;;;9.73;100.00;98625.16;5006377;28;20455;-78
2023/02/19 00:07:50;;;;;;;2.83;2.60;;;9.20;99.90;;;9.77;100.00;98609.97;5005436;28;20463;-78
2023/02/19 00:10:19;;;;;;;2.80;2.47;;;9.30;99.90;;;9.78;100.00;98609.81;5008318;28;20569;-78
2023/02/19 00:12:50;;;;;;;2.87;2.10;;;9.40;99.90;;;9.77;100.00;98607.34;5007903;28;20477;-78
2023/02/19 00:15:19;;;;;;;2.40;2.20;;;9.30;99.90;;;9.79;100.00;98613.25;5006535;28;20467;-78
2023/02/19 00:17:48;;;;;;;2.10;1.90;;;9.30;99.90;;;9.73;100.00;98613.88;5006530;28;20923;-78
2023/02/19 00:20:19;;;;;;;3.40;2.00;;;9.20;99.90;;;9.73;100.00;98611.28;5006089;28;21106;-78
2023/02/19 00:22:50;;;;;;;1.80;1.70;;;9.20;99.90;;;9.79;100.00;98615.84;5006985;28;20499;-78
2023/02/19 00:25:20;;;;;;;2.30;2.10;;;9.30;99.90;;;9.78;100.00;98619.44;5007084;28;20474;-78
2023/02/19 00:27:52;;;;;;;1.80;1.70;;;9.30;99.90;;;9.79;100.00;98618.47;5006852;28;20490;-78
2023/02/19 00:30:21;;;;;;;2.00;1.80;;;9.30;99.90;;;9.73;100.00;98627.78;5006987;28;20474;-78
2023/02/19 00:32:51;;;;;;;3.30;2.20;;;9.20;99.90;;;9.76;100.00;98624.00;5005792;28;20489;-77
2023/02/19 00:35:21;;;;;;;1.97;1.87;;;9.20;99.90;;;9.80;100.00;98636.56;5005356;28;20541;-77
2023/02/19 00:37:50;;;;;;;2.37;2.00;;;9.30;99.90;;;9.82;100.00;98633.81;5006062;28;20496;-78
2023/02/19 00:40:21;;;;;;;1.83;1.73;;;9.40;99.90;;;9.85;100.00;98625.63;5006184;28;20475;-78
2023/02/19 00:42:53;;;;;;;2.20;2.00;;;9.40;99.90;;;9.82;100.00;98599.84;5006051;28;20867;-78
2023/02/19 00:45:22;;;;;;;2.83;1.90;;;9.40;99.90;;;9.82;100.00;98605.06;5006331;28;20573;-78
2023/02/19 00:47:51;;;;;;;1.97;1.87;;;9.40;99.90;;;9.82;100.00;98610.28;5006855;28;20455;-78
2023/02/19 00:50:21;;;;;;;2.10;2.00;;;9.40;99.90;;;9.85;100.00;98602.13;5007272;28;20558;-78
2023/02/19 00:52:50;;;;;;;2.37;2.10;;;9.40;99.90;;;9.83;100.00;98604.06;5005885;28;20462;-78
2023/02/19 00:55:20;;;;;;;1.73;1.57;;;9.40;99.90;;;9.77;100.00;98605.56;5004066;28;20927;-78
2023/02/19 00:57:49;;;;;;;2.50;2.30;;;9.30;99.90;;;9.77;100.00;98607.34;5004564;28;20481;-79
2023/02/19 01:00:21;;;;;;;1.93;1.80;;;9.30;99.90;;;9.82;100.00;98599.84;5001840;28;20463;-78
2023/02/19 01:02:51;;;;;;;2.97;2.00;;;9.30;99.90;;;9.84;100.00;98597.88;5005725;28;20467;-78
2023/02/19 01:05:22;;;;;;;2.93;2.27;;;9.40;99.90;;;9.80;100.00;98594.78;5004728;28;20497;-78
2023/02/19 01:07:52;;;;;;;1.90;1.67;;;9.30;99.90;;;9.84;100.00;98597.88;5006181;28;20466;-78
2023/02/19 01:10:23;;;;;;;2.00;1.90;;;9.40;99.90;;;9.80;100.00;98599.19;5005602;28;20455;-78
2023/02/19 01:12:53;;;;;;;1.93;1.70;;;9.30;99.90;;;9.82;100.00;98600.63;5004050;28;20835;-78
2023/02/19 01:15:23;;;;;;;2.93;2.17;;;9.30;99.90;;;9.81;100.00;98609.47;5006202;28;20498;-78
2023/02/19 01:17:52;;;;;;;2.13;1.90;;;9.30;99.90;;;9.80;100.00;98601.78;5006048;28;20501;-78
2023/02/19 01:20:22;;;;;;;2.03;1.93;;;9.30;99.90;;;9.80;100.00;98597.38;5005288;28;20522;-78
2023/02/19 01:22:51;;;;;;;3.23;2.40;;;9.30;99.90;;;9.80;100.00;98589.56;5006106;28;21025;-77
2023/02/19 01:25:20;;;;;;;2.20;1.90;;;9.40;99.90;;;9.80;100.00;98586.94;5005255;28;20495;-77
2023/02/19 01:27:50;;;;;;;2.00;1.90;;;9.40;99.90;;;9.80;100.00;98597.38;5004041;28;21406;-78
2023/02/19 01:30:19;;;;;;;2.53;2.20;;;9.40;99.90;;;9.74;100.00;98586.81;5006018;28;20526;-78
2023/02/19 01:32:50;;;;;;;2.90;2.13;;;9.30;99.90;;;9.75;100.00;98591.88;5005083;28;20554;-78
2023/02/19 01:35:19;;;;;;;2.30;2.10;;;9.30;99.90;;;9.74;100.00;98586.81;5006082;28;21321;-78
2023/02/19 01:37:49;;;;;;;2.37;1.97;;;9.20;99.90;;;9.72;100.00;98588.78;5003699;28;20475;-78
2023/02/19 01:40:19;;;;;;;2.43;2.23;;;9.20;99.90;;;9.78;100.00;98582.88;5004408;28;20521;-78
2023/02/19 01:42:50;;;;;;;3.00;2.10;;;9.30;99.90;;;9.77;100.00;98581.25;5005670;28;21046;-78
2023/02/19 01:45:26;;;;;;;2.40;2.20;;;9.20;99.90;;;9.74;100.00;98566.72;5005063;28;20506;-77
2023/02/19 01:48:10;;;;;;;2.53;1.87;;;9.20;99.90;;;9.76;100.00;98569.16;5005265;28;20542;-78
2023/02/19 01:50:45;;;;;;;2.67;1.83;;;9.20;99.90;;;9.80;100.00;98552.16;5004936;28;20471;-78
2023/02/19 01:53:21;;;;;;;2.60;1.90;;;9.30;99.90;;;9.79;100.00;98550.56;5004900;28;20582;-78
2023/02/19 01:55:59;;;;;;;3.10;2.27;;;9.30;99.90;;;9.77;100.00;98545.50;5004410;28;20462;-78
2023/02/19 01:58:33;;;;;;;2.00;1.80;;;9.30;99.90;;;9.79;100.00;98543.50;5006033;28;21289;-78
2023/02/19 02:01:08;;;;;;;1.77;1.67;;;9.30;99.90;;;9.82;100.00;98543.16;5003281;28;20470;-78
2023/02/19 02:03:45;;;;;;;1.90;1.80;;;9.30;99.90;;;9.84;100.00;98536.00;5002079;28;20463;-78
2023/02/19 02:06:21;;;;;;;1.70;1.60;;;9.30;99.90;;;9.82;100.00;98542.38;5004600;28;20520;-78
2023/02/19 02:11:45;;;;;;;1.60;1.50;;;9.30;99.90;;;9.86;100.00;98520.97;5002182;28;20477;-78
2023/02/19 02:14:14;;;;;;;2.80;1.80;;;9.30;99.90;;;9.89;100.00;98518.00;5004816;28;20578;-78
2023/02/19 02:17:00;;;;;;;1.90;1.80;;;9.40;99.90;;;9.91;100.00;98523.06;5004298;28;20467;-78
2023/02/19 02:20:12;;;;;;;1.80;1.67;;;9.40;99.90;;;9.87;100.00;98522.59;5005400;28;20550;-78
2023/02/19 02:22:52;;;;;;;2.43;1.80;;;9.40;99.90;;;9.90;100.00;98518.81;5004577;28;20981;-78
2023/02/19 02:26:10;;;;;;;1.60;1.50;;;9.40;99.90;;;9.88;100.00;98526.03;5004338;28;20514;-78
2023/02/19 02:29:45;;;;;;;1.87;1.73;;;9.50;99.90;;;9.86;100.00;98533.19;4986826;28;20515;-78
2023/02/19 02:32:20;;;;;;;1.83;1.70;;;9.50;99.90;;;9.78;100.00;98523.63;5004159;28;20557;-77
2023/02/19 02:34:54;;;;;;;1.70;1.57;;;9.30;99.90;;;9.82;100.00;98529.31;5003652;28;20554;-78
2023/02/19 02:37:28;;;;;;;1.90;1.70;;;9.30;99.90;;;9.80;100.00;98528.66;5004327;28;20561;-79
2023/02/19 02:40:00;;;;;;;1.40;1.30;;;9.30;99.90;;;9.81;100.00;98510.22;5004147;28;20482;-78
2023/02/19 02:42:30;;;;;;;1.73;1.57;;;9.30;99.90;;;9.83;100.00;98503.03;5004621;28;21169;-78
2023/02/19 02:45:35;;;;;;;1.70;1.60;;;9.40;99.90;;;9.82;100.00;98511.03;5004852;28;20517;-78
2023/02/19 02:48:33;;;;;;;1.40;1.30;;;9.40;99.90;;;9.78;100.00;98515.78;5002518;28;20510;-78
2023/02/19 02:51:16;;;;;;;1.20;1.10;;;9.20;99.90;;;9.78;100.00;98535.88;5004120;28;20974;-78
2023/02/19 02:56:42;;;;;;;1.30;1.20;;;9.30;99.90;;;9.81;100.00;98525.06;5004584;28;20467;-78
2023/02/19 02:59:17;;;;;;;1.50;1.40;;;9.40;99.90;;;9.79;100.00;98524.44;5005382;28;20470;-78
2023/02/19 03:02:10;;;;;;;1.77;1.43;;;9.30;99.90;;;9.80;100.00;98520.84;5004332;28;20559;-78
2023/02/19 03:07:45;;;;;;;2.27;1.50;;;9.30;99.90;;;9.79;100.00;98520.00;5007791;28;20479;-78
2023/02/19 03:10:23;;;;;;;1.60;1.50;;;9.30;99.90;;;9.82;100.00;98516.25;5007402;28;21431;-78
2023/02/19 03:21:45;;;;;;;1.30;1.20;;;9.40;99.90;;;9.78;100.00;98520.19;5007493;28;20490;-78
2023/02/19 03:27:07;;;;;;;2.80;1.73;;;9.40;99.90;;;9.74;100.00;98513.69;5007572;28;20482;-78
2023/02/19 03:29:41;;;;;;;1.60;1.50;;;9.30;99.90;;;9.71;100.00;98529.69;5007231;28;20493;-78
2023/02/19 03:32:18;;;;;;;1.97;1.70;;;9.30;99.90;;;9.73;100.00;98527.72;5008283;28;20969;-78
2023/02/19 03:34:55;;;;;;;1.77;1.33;;;9.30;99.90;;;9.72;100.00;98531.34;5007896;28;20454;-77
2023/02/19 03:37:33;;;;;;;1.80;1.40;;;9.20;99.90;;;9.73;100.00;98527.72;5008316;28;20474;-78
2023/02/19 03:40:02;;;;;;;1.90;1.70;;;9.20;99.90;;;9.72;100.00;98526.09;5007670;28;20554;-78
2023/02/19 03:42:44;;;;;;;1.50;1.40;;;9.20;99.90;;;9.69;100.00;98521.19;5006445;28;20505;-78
2023/02/19 03:45:36;;;;;;;1.40;1.30;;;9.20;99.90;;;9.69;100.00;98534.25;5007082;28;20479;-78
2023/02/19 03:48:33;;;;;;;1.73;1.40;;;9.20;99.90;;;9.72;100.00;98526.09;5007356;28;20482;-77
2023/02/19 03:51:31;;;;;;;1.47;1.37;;;9.30;99.90;;;9.72;100.00;98533.94;5007162;28;20470;-78
2023/02/19 03:54:16;;;;;;;1.50;1.30;;;9.30;99.90;;;9.68;100.00;98535.25;5005084;28;20470;-77
2023/02/19 03:56:53;;;;;;;1.90;1.70;;;9.10;99.90;;;9.70;100.00;98530.66;5007735;28;20553;-78
2023/02/19 03:59:34;;;;;;;1.40;1.30;;;9.20;99.90;;;9.67;100.00;98544.06;5007701;28;20462;-77
2023/02/19 04:02:12;;;;;;;2.37;1.47;;;9.20;99.90;;;9.67;100.00;98533.63;5005676;28;20516;-78
2023/02/19 04:04:49;;;;;;;1.30;1.20;;;9.10;99.90;;;9.65;100.00;98536.38;5006832;28;20459;-77
2023/02/19 04:07:19;;;;;;;1.70;1.60;;;9.10;99.90;;;9.68;100.00;98537.88;5007791;28;20470;-77
2023/02/19 04:09:53;;;;;;;1.70;1.53;;;9.10;99.90;;;9.67;100.00;98534.44;5004545;28;20542;-78
2023/02/19 04:12:24;;;;;;;1.47;1.37;;;9.20;99.90;;;9.70;100.00;98544.53;5006308;28;20463;-77
2023/02/19 04:15:00;;;;;;;1.40;1.30;;;9.20;99.90;;;9.70;100.00;98546.34;5005873;28;20460;-78
2023/02/19 04:17:37;;;;;;;1.40;1.30;;;9.20;99.90;;;9.70;100.00;98543.72;5007211;28;20957;-78
2023/02/19 04:20:11;;;;;;;1.47;1.37;;;9.20;99.90;;;9.71;100.00;98550.59;5006547;28;20555;-77
2023/02/19 04:22:43;;;;;;;1.47;1.37;;;9.10;99.90;;;9.70;100.00;98552.38;5007125;28;20541;-78
2023/02/19 04:25:15;;;;;;;1.93;1.30;;;9.10;99.90;;;9.70;100.00;98543.72;5006294;28;20938;-77
2023/02/19 04:27:46;;;;;;;1.20;1.10;;;9.20;99.90;;;9.63;100.00;98546.19;5006246;28;21076;-77
2023/02/19 04:30:16;;;;;;;1.20;1.10;;;9.10;99.90;;;9.63;100.00;98548.81;5005993;28;20542;-77
2023/02/19 04:32:46;;;;;;;1.90;1.00;;;9.10;99.90;;;9.65;100.00;98556.50;5007270;28;20517;-78
2023/02/19 04:35:17;;;;;;;2.10;1.20;;;9.10;99.90;;;9.64;100.00;98570.50;5005714;28;20470;-77
2023/02/19 04:37:48;;;;;;;1.50;1.40;;;9.00;99.90;;;9.64;100.00;98573.13;5006781;28;20533;-77
2023/02/19 04:40:19;;;;;;;1.50;1.40;;;9.00;99.90;;;9.61;100.00;98582.91;5005870;28;20553;-77
2023/02/19 04:42:49;;;;;;;1.37;1.17;;;9.10;99.90;;;9.60;100.00;98575.25;5004766;28;20474;-78
2023/02/19 04:45:20;;;;;;;3.57;2.60;;;9.10;99.90;;;9.58;100.00;98583.25;5002724;28;20463;-75
2023/02/19 04:47:49;;;;;;;4.67;2.33;;;9.10;99.90;;;9.60;100.00;98589.13;5003326;28;20494;-77
2023/02/19 04:50:19;;;;;;;1.60;1.50;;;9.00;99.90;;;9.63;100.00;98574.09;5004056;28;21000;-77
2023/02/19 04:52:48;;;;;;;1.63;1.47;;;9.00;99.90;;;9.63;100.00;98576.72;5000069;28;20494;-77
2023/02/19 04:55:19;;;;;;;1.43;1.33;;;9.00;99.90;;;9.61;100.00;98582.91;4999935;28;20557;-80
2023/02/19 04:57:49;;;;;;;2.00;1.70;;;9.10;99.90;;;9.60;100.00;98590.91;5001116;28;21013;-77
2023/02/19 05:00:20;;;;;;;1.27;1.17;;;9.00;99.90;;;9.59;100.00;98595.31;4996454;28;20547;-78
2023/02/19 05:02:50;;;;;;;1.27;1.17;;;9.10;99.90;;;9.58;100.00;98583.25;4999287;28;20506;-77
2023/02/19 05:05:19;;;;;;;1.60;1.27;;;9.10;99.90;;;9.55;100.00;98599.25;5002307;28;20547;-78
2023/02/19 05:07:49;;;;;;;1.37;1.07;;;9.00;99.90;;;9.51;100.00;98597.16;4998820;28;20464;-78
2023/02/19 05:10:20;;;;;;;1.20;1.10;;;9.00;99.90;;;9.49;100.00;98593.88;5001733;28;20526;-81
2023/02/19 05:12:50;;;;;;;1.57;1.10;;;9.00;99.90;;;9.48;100.00;98606.13;4999911;28;20938;-78
2023/02/19 05:15:21;;;;;;;1.30;1.20;;;9.00;99.90;;;9.45;100.00;98601.22;5002085;28;20502;-77
2023/02/19 05:17:50;;;;;;;2.50;1.10;;;9.00;99.90;;;9.45;100.00;98603.84;5001562;28;20464;-77
2023/02/19 05:20:21;;;;;;;1.27;1.17;;;9.00;99.90;;;9.44;100.00;98604.81;5003343;28;20472;-78
2023/02/19 05:22:51;;;;;;;1.70;1.37;;;9.00;99.90;;;9.43;100.00;98607.59;5003681;28;20495;-78
2023/02/19 05:25:22;;;;;;;8.27;1.33;;;8.90;99.90;;;9.42;100.00;98604.19;5003778;28;20848;-78
2023/02/19 05:28:15;;;;;;;1.60;1.47;;;8.90;99.90;;;9.41;100.00;98602.53;5000149;28;20529;-78
2023/02/19 05:30:43;;;;;;;2.87;1.27;;;9.00;99.90;;;9.42;100.00;98604.19;5003704;28;20473;-78
2023/02/19 05:33:13;;;;;;;2.70;1.27;;;9.00;99.90;;;9.36;100.00;98607.44;5000117;28;20575;-78
2023/02/19 05:35:45;;;;;;;1.53;1.30;;;8.80;99.90;;;9.39;100.00;98607.13;5002794;28;20833;-75
2023/02/19 05:38:18;;;;;;;3.90;2.63;;;8.90;99.90;;;9.39;100.00;98598.47;5002798;28;20873;-78
2023/02/19 05:40:51;;;;;;;2.07;1.40;;;8.90;99.90;;;9.38;100.00;98610.69;5004717;28;20817;-78
2023/02/19 05:43:21;;;;;;;6.30;1.90;;;8.90;99.90;;;9.39;100.00;98619.34;5004974;28;20566;-77
2023/02/19 05:45:51;;;;;;;1.90;1.17;;;8.90;99.90;;;9.40;100.00;98627.03;5003938;28;20479;-77
2023/02/19 05:48:21;;;;;;;1.30;1.20;;;8.90;99.90;;;9.35;100.00;98621.47;5001170;28;20463;-78
2023/02/19 05:50:51;;;;;;;2.90;1.43;;;8.80;99.90;;;9.36;100.00;98620.50;5003773;28;20521;-78
2023/02/19 05:53:21;;;;;;;1.77;0.90;;;8.80;99.90;;;9.35;100.00;98624.09;5002347;28;20493;-78
2023/02/19 05:55:55;;;;;;;1.97;1.37;;;8.80;99.90;;;9.34;100.00;98634.69;5005429;28;20458;-76
2023/02/19 05:58:25;;;;;;;3.83;1.30;;;8.80;99.90;;;9.32;100.00;98624.41;5004530;28;20469;-76
2023/02/19 06:00:58;;;;;;;1.33;1.10;;;8.70;99.90;;;9.32;100.00;98623.59;5005303;28;20837;-76
2023/02/19 06:03:29;;;;;;;10.07;1.50;;;8.70;99.90;;;9.34;100.00;98625.06;5001323;28;20466;-76
2023/02/19 06:06:00;;;;;;;3.50;1.50;;;8.80;99.90;;;9.33;100.00;98630.47;5007488;28;20489;-76
2023/02/19 06:08:30;;;;;;;1.97;1.40;;;8.80;99.90;;;9.26;100.00;98640.75;5005750;28;20466;-76
2023/02/19 06:11:02;;;;;;;2.40;1.50;;;8.60;99.90;;;9.27;100.00;98642.34;5003425;28;20459;-76
2023/02/19 06:13:32;;;;;;;3.50;1.30;;;8.70;99.90;;;9.30;100.00;98646.44;5001693;28;20506;-76
2023/02/19 06:16:04;;;;;;;1.70;1.27;;;8.80;99.90;;;9.27;100.00;98647.56;5001273;28;20466;-76
2023/02/19 06:18:39;;;;;;;3.77;1.60;;;8.80;99.90;;;9.25;100.00;98649.53;5005146;28;20458;-76
2023/02/19 06:21:10;;;;;;;4.23;1.77;;;8.70;99.90;;;9.20;100.00;98646.59;5003717;28;20577;-76
2023/02/19 06:23:42;;;;;;;4.30;1.60;;;8.70;99.90;;;9.24;100.00;98650.50;5001455;28;20475;-76
2023/02/19 06:26:17;;;;;;;2.03;1.30;;;8.80;99.90;;;9.25;100.00;98652.16;5001140;28;20459;-76
2023/02/19 06:28:48;;;;;;;3.93;1.30;;;8.70;99.90;;;9.26;100.00;98664.22;5001858;28;20460;-76
2023/02/19 06:31:19;;;;;;;3.00;1.47;;;8.70;99.90;;;9.27;100.00;98672.84;5003985;28;21416;-72
2023/02/19 06:33:50;;;;;;;3.70;1.20;;;8.80;99.90;;;9.27;100.00;98673.66;5004819;28;20455;-76
2023/02/19 06:36:21;;;;;;;2.90;1.30;;;8.80;99.90;;;9.29;100.00;98681.34;4998229;28;20554;-76
2023/02/19 06:38:51;;;;;;;1.77;1.10;;;8.80;99.90;;;9.25;100.00;98691.28;5007370;28;20544;-76
2023/02/19 06:41:23;;;;;;;3.80;1.63;;;8.70;99.90;;;9.27;100.00;98694.53;5008035;28;20462;-76
2023/02/19 06:43:52;;;;;;;3.43;1.10;;;8.70;99.90;;;9.29;100.00;98697.81;5008257;28;20467;-76
2023/02/19 06:46:21;;;;;;;3.20;1.30;;;8.80;99.90;;;9.29;100.00;98699.59;5006723;28;20498;-76
2023/02/19 06:48:51;;;;;;;1.37;1.10;;;8.70;99.90;;;9.29;100.00;98703.03;5009174;28;20466;-76
2023/02/19 06:51:23;;;;;;;3.83;1.40;;;8.80;99.90;;;9.32;100.00;98707.09;5005060;28;20473;-76
2023/02/19 06:53:52;;;;;;;2.20;1.10;;;8.80;99.90;;;9.34;100.00;98710.34;5003530;28;20509;-77
2023/02/19 06:56:28;;;;;;;1.50;1.10;;;8.80;99.90;;;9.35;100.00;98714.59;5004915;28;20896;-76
2023/02/19 06:59:00;;;;;;;1.83;1.07;;;8.80;99.90;;;9.33;100.00;98720.00;5007602;28;20847;-76
2023/02/19 07:01:31;;;;;;;2.77;1.40;;;8.70;99.90;;;9.34;100.00;98719.00;5004813;28;20983;-76
2023/02/19 07:04:02;;;;;;;4.00;1.60;;;8.70;99.90;;;9.36;100.00;98718.88;5006179;28;20980;-76
2023/02/19 07:06:35;;;;;;;2.10;1.17;;;8.70;99.90;;;9.36;100.00;98711.03;5005778;28;20488;-76
2023/02/19 07:09:06;;;;;;;6.23;1.23;;;8.80;99.90;;;9.34;100.00;98719.00;5003963;28;21081;-76
2023/02/19 07:11:39;;;;;;;4.63;1.60;;;8.80;99.90;;;9.34;100.00;98716.41;5004776;28;20474;-75
2023/02/19 07:14:17;;;;;;;4.53;1.50;;;8.80;99.90;;;9.35;100.00;98731.09;5003159;28;20462;-76
2023/02/19 07:16:47;;;;;;;15.10;5.90;;;8.70;99.90;;;9.37;100.00;98726.50;5006318;28;20466;-76
2023/02/19 07:19:18;;;;;;;4.93;1.83;;;8.80;99.90;;;9.41;100.00;98732.22;5003877;28;20463;-76
2023/02/19 07:21:47;;;;;;;3.33;1.40;;;8.80;99.90;;;9.41;100.00;98733.03;5006062;28;20537;-76
2023/02/19 07:24:17;;;;;;;5.47;1.40;;;8.80;99.90;;;9.40;100.00;98725.41;5004829;28;20557;-76
2023/02/19 07:26:48;;;;;;;8.10;1.77;;;8.80;99.90;;;9.43;100.00;98736.31;5007256;28;20462;-76
2023/02/19 07:29:19;;;;;;;2.93;1.30;;;8.90;99.90;;;9.42;100.00;98739.09;5002364;28;20498;-76
2023/02/19 07:31:50;;;;;;;3.87;1.50;;;8.90;99.90;;;9.42;100.00;98739.09;5003731;28;20462;-77
2023/02/19 07:34:20;;;;;;;5.47;1.67;;;9.00;99.90;;;9.40;100.00;98739.25;5005789;28;20532;-77
2023/02/19 07:36:49;;;;;;;2.90;1.30;;;8.90;99.90;;;9.42;100.00;98750.34;5007087;28;20509;-78
2023/02/19 07:39:19;;;;;;;13.50;1.77;;;8.90;99.90;;;9.36;100.00;98752.78;5001813;28;20466;-78
2023/02/19 07:41:51;;;;;;;4.87;1.30;;;8.80;99.90;;;9.38;100.00;98743.81;5004055;28;20978;-78
2023/02/19 07:44:22;;;;;;;3.80;1.37;;;8.90;99.90;;;9.41;100.00;98759.16;5003146;28;20467;-78
2023/02/19 07:46:51;;;;;;;4.70;1.77;;;8.90;99.90;;;9.45;100.00;98767.47;5008282;28;20495;-77
2023/02/19 07:49:23;;;;;;;4.33;1.33;;;9.00;99.90;;;9.47;100.00;98768.16;5002756;28;20467;-77
2023/02/19 07:51:53;;;;;;;10.93;2.77;;;9.00;99.90;;;9.48;100.00;98770.56;5005527;28;20583;-78
2023/02/19 07:54:23;;;;;;;3.83;1.87;;;9.00;99.90;;;9.50;100.00;98773.84;5003525;28;20968;-78
2023/02/19 07:56:55;;;;;;;6.27;1.40;;;9.00;99.90;;;9.52;100.00;98778.91;5001807;28;20471;-77
2023/02/19 07:59:24;;;;;;;5.63;1.63;;;9.00;99.90;;;9.50;100.00;98773.84;5005478;28;20491;-77
2023/02/19 08:04:39;;;;;;;4.87;1.53;;;8.90;99.90;;;9.54;100.00;98780.34;4999860;28;20524;-78
2023/02/19 08:07:09;;;;;;;3.93;1.00;;;9.00;99.90;;;9.56;100.00;98785.44;5000358;28;20509;-77
2023/02/19 08:09:40;;;;;;;9.50;1.73;;;9.10;99.90;;;9.57;100.00;98790.50;4997233;28;20459;-78
2023/02/19 08:14:59;;;;;;;3.00;1.60;;;9.00;99.90;;;9.54;100.00;98803.84;5005122;28;20532;-78
2023/02/19 08:17:30;;;;;;;4.97;1.60;;;9.00;99.90;;;9.56;100.00;98801.91;5000261;28;20470;-73
2023/02/19 08:19:59;;;;;;;4.57;1.77;;;9.00;99.90;;;9.59;100.00;98811.22;5000982;28;21013;-77
2023/02/19 08:22:28;;;;;;;6.43;2.03;;;9.10;99.90;;;9.61;100.00;98823.13;4999584;28;20840;-78
2023/02/19 08:24:57;;;;;;;5.70;2.17;;;9.10;99.90;;;9.63;100.00;98827.38;5004123;28;20566;-77
2023/02/19 08:27:29;;;;;;;4.60;1.43;;;9.20;99.90;;;9.63;100.00;98815.13;5001525;28;20519;-78
2023/02/19 08:29:57;;;;;;;2.47;1.40;;;9.10;99.90;;;9.66;100.00;98820.03;5001884;28;20468;-77
2023/02/19 08:32:26;;;;;;;5.70;1.80;;;9.10;99.90;;;9.67;100.00;98813.03;5002135;28;20481;-78
2023/02/19 08:34:55;;;;;;;6.90;2.03;;;9.10;99.90;;;9.67;100.00;98816.44;4997902;28;21099;-77
2023/02/19 08:37:25;;;;;;;3.87;1.70;;;9.20;99.90;;;9.61;100.00;98827.56;4999164;28;20494;-77
2023/02/19 08:39:55;;;;;;;3.60;1.73;;;9.10;99.90;;;9.61;100.00;98825.72;5000564;28;20475;-74
2023/02/19 08:42:24;;;;;;;18.10;6.80;;;9.10;99.90;;;9.67;100.00;98841.75;5003280;28;20459;-77
2023/02/19 08:44:56;;;;;;;3.90;2.87;;;9.10;99.90;;;9.72;100.00;98839.47;5000392;28;20463;-77
2023/02/19 08:47:27;;;;;;;1.90;1.37;;;9.20;99.90;;;9.72;100.00;98839.47;5001424;28;20879;-77
2023/02/19 08:49:57;;;;;;;4.43;1.37;;;9.20;99.90;;;9.73;100.00;98856.75;5002858;28;20517;-77
2023/02/19 08:52:28;;;;;;;4.83;2.13;;;9.30;99.90;;;9.76;100.00;98840.75;5004018;28;20475;-77
2023/02/19 08:54:58;;;;;;;1.63;1.43;;;9.40;99.90;;;9.75;100.00;98852.22;5003188;28;20805;-77
2023/02/19 08:57:28;;;;;;;6.20;2.10;;;9.30;99.90;;;9.74;100.00;98853.19;5003016;28;20978;-77
2023/02/19 08:59:58;;;;;;;1.57;1.30;;;9.30;99.90;;;9.77;100.00;98860.69;5004915;28;20471;-77
2023/02/19 09:02:27;;;;;;;5.20;1.60;;;9.30;99.90;;;9.77;100.00;98860.69;5006057;28;20490;-77
2023/02/19 09:04:56;;;;;;;4.87;1.53;;;9.30;99.90;;;9.78;100.00;98868.38;5006882;28;20563;-77
2023/02/19 09:07:26;;;;;;;6.13;1.50;;;9.30;99.90;;;9.79;100.00;98869.19;5006288;28;20551;-77
2023/02/19 09:09:57;;;;;;;1.80;1.20;;;9.30;99.90;;;9.80;100.00;98874.25;5005895;28;20499;-77
2023/02/19 09:12:26;;;;;;;8.00;1.97;;;9.40;99.90;;;9.82;100.00;98863.66;5003280;28;20545;-77
2023/02/19 09:14:58;;;;;;;4.30;1.70;;;9.30;99.90;;;9.83;100.00;98867.88;5003204;28;20887;-77
2023/02/19 09:17:28;;;;;;;5.93;1.53;;;9.30;99.90;;;9.87;100.00;98867.41;5008743;28;20468;-77
2023/02/19 09:19:57;;;;;;;3.27;1.53;;;9.40;99.90;;;9.86;100.00;98870.16;5002843;28;20868;-77
2023/02/19 09:22:27;;;;;;;6.73;1.77;;;9.40;99.90;;;9.89;100.00;98873.25;5005987;28;20471;-77
2023/02/19 09:24:56;;;;;;;4.17;1.47;;;9.50;99.90;;;9.88;100.00;98876.06;5005275;28;21024;-77
2023/02/19 09:27:26;;;;;;;4.00;1.70;;;9.40;99.90;;;9.88;100.00;98876.06;5001740;28;20470;-77
2023/02/19 09:29:57;;;;;;;11.20;1.67;;;9.40;99.90;;;9.91;100.00;98871.31;5005702;28;20553;-77
2023/02/19 09:32:27;;;;;;;3.53;1.43;;;9.40;99.90;;;9.93;100.00;98877.19;5005204;28;20483;-77
2023/02/19 09:34:56;;;;;;;2.50;1.40;;;9.40;99.90;;;9.98;100.00;98881.94;5003039;28;20648;-77
2023/02/19 09:37:27;;;;;;;4.53;1.50;;;9.50;99.90;;;9.99;100.00;98878.34;5000982;28;20507;-77
2023/02/19 09:39:57;;;;;;;3.80;1.67;;;9.50;99.90;;;10.04;100.00;98886.50;5002218;28;20832;-77
2023/02/19 09:42:31;;;;;;;5.07;1.90;;;9.60;99.90;;;10.00;100.00;98893.84;5006173;28;20546;-77
2023/02/19 09:45:05;;;;;;;3.93;1.30;;;9.50;99.90;;;10.04;100.00;98886.50;5005446;28;20502;-77
2023/02/19 09:47:36;;;;;;;3.50;1.30;;;9.60;99.90;;;10.06;100.00;98889.78;5005734;28;20545;-77
2023/02/19 09:50:10;;;;;;;7.70;1.63;;;9.60;99.90;;;10.10;100.00;98896.31;5004812;28;20569;-77
2023/02/19 09:52:48;;;;;;;15.77;1.70;;;9.60;99.90;;;10.11;100.00;98904.00;5005747;28;20495;-77
2023/02/19 09:55:31;;;;;;;3.33;1.17;;;9.60;99.90;;;10.13;100.00;98891.56;5005141;28;20468;-77
2023/02/19 09:58:17;;;;;;;5.90;1.87;;;9.60;99.90;;;10.17;100.00;98886.84;5004575;28;20469;-77
2023/02/19 10:00:51;;;;;;;5.90;1.60;;;9.70;99.90;;;10.16;100.00;98890.47;5007431;28;20980;-77
2023/02/19 10:03:29;;;;;;;3.17;1.17;;;9.70;99.90;;;10.19;100.00;98892.75;4999851;28;20892;-77
2023/02/19 10:06:01;;;;;;;2.97;1.70;;;9.70;99.90;;;10.27;100.00;98897.19;5003485;28;20578;-77
2023/02/19 10:08:36;;;;;;;10.13;1.87;;;9.80;99.90;;;10.27;100.00;98890.16;5003061;28;21787;-77
2023/02/19 10:11:06;;;;;;;3.20;1.50;;;9.80;99.90;;;10.27;100.00;98899.78;5000405;28;20457;-77
2023/02/19 10:13:41;;;;;;;4.53;1.73;;;9.80;99.90;;;10.29;100.00;98898.63;5005032;28;20507;-77
2023/02/19 10:16:17;;;;;;;10.30;4.40;;;9.80;99.90;;;10.32;100.00;98900.09;5003844;28;20537;-77
2023/02/19 10:18:48;;;;;;;6.97;1.90;;;9.90;99.90;;;10.39;100.00;98894.06;4999837;28;20552;-77
2023/02/19 10:21:23;;;;;;;8.10;1.80;;;9.90;99.90;;;10.43;100.00;98908.44;5005356;28;21034;-74
2023/02/19 10:24:00;;;;;;;3.53;1.70;;;10.00;99.90;;;10.45;100.00;98909.06;4998588;28;20494;-77
2023/02/19 10:26:33;;;;;;;9.60;1.87;;;10.10;99.90;;;10.44;100.00;98907.47;5002472;28;20484;-77
2023/02/19 10:29:03;;;;;;;4.70;1.70;;;10.00;99.90;;;10.44;100.00;98907.47;5007490;28;20479;-77
2023/02/19 10:31:34;;;;;;;4.30;1.60;;;10.00;99.90;;;10.45;100.00;98909.06;5003288;28;20598;-77
2023/02/19 10:34:05;;;;;;;4.40;1.77;;;10.00;99.90;;;10.44;100.00;98904.84;5004122;28;20458;-77
2023/02/19 10:36:40;;;;;;;4.83;1.80;;;10.00;99.90;;;10.47;100.00;98907.13;5005671;28;20486;-77
2023/02/19 10:39:40;;;;;;;4.27;1.63;;;10.10;99.90;;;10.53;100.00;98903.84;5003954;28;20474;-78
2023/02/19 10:42:45;;;;;;;10.33;2.00;;;10.10;99.90;;;10.49;100.00;98905.16;5003116;28;21045;-77
2023/02/19 10:45:21;;;;;;;2.50;1.37;;;10.10;99.90;;;10.50;100.00;98909.41;5004790;28;20470;-77
2023/02/19 10:47:54;;;;;;;3.33;1.50;;;10.10;99.90;;;10.52;100.00;98911.84;5007138;28;20961;-77
2023/02/19 10:50:31;;;;;;;11.47;4.07;;;10.10;99.90;;;10.55;100.00;98917.56;5003453;28;20495;-77
2023/02/19 10:53:01;;;;;;;5.80;2.87;;;10.10;99.90;;;10.58;100.00;98930.34;5002013;28;20806;-78
2023/02/19 10:55:35;;;;;;;4.10;2.03;;;10.20;99.90;;;10.57;100.00;98933.91;5001562;28;20466;-78
2023/02/19 10:58:25;;;;;;;8.80;3.20;;;10.10;99.90;;;10.54;100.00;98933.44;5005779;28;20533;-77
2023/02/19 11:01:13;;;;;;;5.17;1.87;;;10.00;99.90;;;10.58;100.00;98932.94;5006004;28;20993;-77
2023/02/19 11:03:44;;;;;;;6.67;2.00;;;10.10;99.90;;;10.63;100.00;98952.53;5006744;28;20487;-77
2023/02/19 11:06:17;;;;;;;5.07;1.70;;;10.20;99.90;;;10.67;100.00;98953.84;5005649;28;21074;-77
2023/02/19 11:08:55;;;;;;;6.63;1.77;;;10.30;99.90;;;10.65;100.00;98947.97;5005396;28;20482;-77
2023/02/19 11:11:36;;;;;;;3.33;1.40;;;10.20;99.90;;;10.68;100.00;98960.72;5002029;28;20495;-77
2023/02/19 11:14:15;;;;;;;6.53;1.53;;;10.30;99.90;;;10.67;100.00;98966.91;5005733;28;20494;-77
2023/02/19 11:16:48;;;;;;;10.87;2.33;;;10.20;99.90;;;10.75;100.00;98964.31;5005198;28;20463;-77